createdAt,value
2023-04-13T00:14:35.453Z,6.11
2023-04-13T00:17:13.725Z,6.38
2023-04-13T00:19:53.098Z,6.42
2023-04-13T00:22:59.697Z,6.39
2023-04-13T00:25:54.269Z,6.50
2023-04-13T00:36:17.975Z,6.18
2023-04-13T00:40:02.288Z,6.03
2023-04-13T00:50:37.891Z,5.75
2023-04-13T00:56:55.574Z,5.59
2023-04-13T00:59:26.268Z,5.57
2023-04-13T01:02:05.963Z,6.04
2023-04-13T01:04:49.651Z,5.77
2023-04-13T01:07:39.301Z,5.64
2023-04-13T01:10:22.762Z,5.84
2023-04-13T01:12:58.377Z,5.88
2023-04-13T01:22:43.380Z,5.78
2023-04-13T01:25:32.594Z,5.28
2023-04-13T01:36:04.485Z,5.23
2023-04-13T01:38:28.835Z,5.15
2023-04-13T01:40:56.265Z,5.45
2023-04-13T01:43:24.527Z,5.65
2023-04-13T01:46:19.174Z,5.64
2023-04-13T01:48:49.861Z,5.09
2023-04-13T02:06:06.532Z,4.76
2023-04-13T02:08:45.507Z,4.39
2023-04-13T02:11:18.156Z,4.73
2023-04-13T02:16:37.974Z,4.91
2023-04-13T02:19:04.990Z,5.35
2023-04-13T02:21:35.701Z,5.27
2023-04-13T02:24:05.544Z,4.64
2023-04-13T02:26:37.335Z,4.74
2023-04-13T02:29:07.636Z,4.77
2023-04-13T02:32:06.185Z,4.65
2023-04-13T02:34:34.450Z,4.82
2023-04-13T02:37:02.489Z,4.55
2023-04-13T02:39:29.855Z,4.75
2023-04-13T02:41:58.467Z,4.59
2023-04-13T02:44:25.512Z,5.30
2023-04-13T02:46:52.675Z,5.25
2023-04-13T02:49:20.268Z,4.72
2023-04-13T02:51:47.263Z,4.79
2023-04-13T02:54:14.040Z,5.14
2023-04-13T02:56:41.237Z,4.59
2023-04-13T02:59:08.130Z,4.48
2023-04-13T03:01:35.073Z,4.26
2023-04-13T03:04:03.238Z,4.07
2023-04-13T03:06:31.553Z,4.45
2023-04-13T03:08:59.330Z,4.52
2023-04-13T03:11:26.745Z,4.08
2023-04-13T03:13:54.453Z,4.58
2023-04-13T03:16:21.374Z,4.57
2023-04-13T03:18:48.819Z,3.73
2023-04-13T03:21:16.204Z,4.10
2023-04-13T03:23:43.976Z,4.21
2023-04-13T03:26:11.228Z,3.90
2023-04-13T03:28:38.236Z,3.89
2023-04-13T03:31:05.358Z,3.78
2023-04-13T03:33:32.737Z,4.42
2023-04-13T03:35:59.668Z,4.32
2023-04-13T03:38:26.577Z,4.35
2023-04-13T03:40:54.261Z,4.31
2023-04-13T03:43:23.349Z,4.41
2023-04-13T03:45:50.375Z,4.69
2023-04-13T03:48:24.126Z,4.70
2023-04-13T03:50:52.874Z,4.55
2023-04-13T03:53:19.711Z,4.32
2023-04-13T04:01:31.387Z,4.52
2023-04-13T04:04:55.139Z,4.01
2023-04-13T04:07:25.744Z,3.99
2023-04-13T04:10:20.278Z,3.64
2023-04-13T04:12:57.937Z,4.04
2023-04-13T04:18:13.552Z,5.29
2023-04-13T04:31:57.841Z,3.99
2023-04-13T04:35:34.505Z,3.74
2023-04-13T04:38:27.564Z,3.73
2023-04-13T04:41:04.343Z,3.27
2023-04-13T04:43:31.172Z,3.67
2023-04-13T04:45:58.459Z,3.56
2023-04-13T04:48:32.021Z,3.81
2023-04-13T04:51:00.270Z,3.99
2023-04-13T04:53:27.321Z,4.96
2023-04-13T04:55:54.350Z,4.99
2023-04-13T04:58:21.330Z,5.79
2023-04-13T05:00:49.937Z,6.76
2023-04-13T05:03:17.166Z,6.71
2023-04-13T05:11:49.972Z,7.47
2023-04-13T05:14:16.744Z,6.24
2023-04-13T05:16:43.550Z,6.45
2023-04-13T05:19:10.908Z,6.93
2023-04-13T05:21:38.228Z,7.12
2023-04-13T05:24:05.679Z,8.33
2023-04-13T05:26:37.319Z,6.67
2023-04-13T05:29:06.937Z,8.75
2023-04-13T05:31:34.185Z,7.17
2023-04-13T05:34:01.864Z,7.50
2023-04-13T05:36:45.781Z,8.75
2023-04-13T05:39:12.580Z,8.98
2023-04-13T05:41:39.324Z,8.20
2023-04-13T05:44:06.538Z,8.77
2023-04-13T05:46:34.232Z,7.79
2023-04-13T05:49:02.189Z,8.74
2023-04-13T05:51:40.065Z,8.60
2023-04-13T05:54:09.965Z,8.34
2023-04-13T05:56:38.027Z,9.68
2023-04-13T05:59:06.510Z,9.72
2023-04-13T06:01:33.786Z,10.10
2023-04-13T06:04:04.031Z,10.23
2023-04-13T06:06:31.896Z,10.81
2023-04-13T06:09:01.386Z,11.29
2023-04-13T06:11:30.133Z,10.68
2023-04-13T06:13:59.942Z,11.05
2023-04-13T06:16:30.148Z,10.12
2023-04-13T06:19:00.617Z,10.93
2023-04-13T06:21:38.864Z,11.74
2023-04-13T06:24:12.058Z,11.35
2023-04-13T06:26:39.466Z,10.90
2023-04-13T06:29:07.842Z,10.69
2023-04-13T06:31:37.543Z,10.85
2023-04-13T06:34:04.918Z,10.57
2023-04-13T06:36:38.208Z,11.23
2023-04-13T06:39:08.069Z,10.61
2023-04-13T06:41:43.232Z,10.43
2023-04-13T06:44:12.503Z,11.38
2023-04-13T06:46:54.675Z,10.89
2023-04-13T06:49:24.492Z,10.14
2023-04-13T06:51:53.463Z,10.71
2023-04-13T06:54:20.349Z,10.55
2023-04-13T06:56:52.476Z,10.51
2023-04-13T06:59:21.356Z,11.61
2023-04-13T07:01:48.762Z,11.99
2023-04-13T07:04:27.406Z,12.28
2023-04-13T07:07:08.240Z,12.07
2023-04-13T07:09:39.417Z,12.50
2023-04-13T07:12:08.574Z,12.33
2023-04-13T07:14:39.865Z,12.36
2023-04-13T07:17:12.704Z,13.99
2023-04-13T07:19:55.899Z,14.02
2023-04-13T07:22:23.279Z,12.87
2023-04-13T07:24:59.883Z,12.75
2023-04-13T07:27:30.743Z,12.21
2023-04-13T07:29:59.720Z,13.41
2023-04-13T07:32:31.848Z,13.60
2023-04-13T07:35:03.729Z,13.33
2023-04-13T07:37:30.948Z,13.65
2023-04-13T07:40:19.342Z,13.37
2023-04-13T07:42:55.441Z,14.18
2023-04-13T07:45:28.729Z,12.93
2023-04-13T07:47:56.064Z,12.73
2023-04-13T07:50:23.579Z,13.40
2023-04-13T07:52:51.821Z,14.53
2023-04-13T07:55:19.039Z,14.46
2023-04-13T07:57:46.135Z,14.10
2023-04-13T08:00:15.657Z,14.11
2023-04-13T08:02:43.454Z,14.43
2023-04-13T08:05:14.038Z,15.00
2023-04-13T08:07:41.196Z,14.99
2023-04-13T08:10:08.908Z,14.94
2023-04-13T08:12:36.284Z,15.71
2023-04-13T08:15:05.580Z,15.17
2023-04-13T08:17:33.466Z,14.92
2023-04-13T08:20:02.769Z,15.59
2023-04-13T08:22:29.588Z,16.07
2023-04-13T08:24:56.859Z,16.05
2023-04-13T08:27:24.212Z,16.94
2023-04-13T08:29:56.321Z,16.51
2023-04-13T08:32:23.444Z,16.82
2023-04-13T08:34:50.640Z,17.27
2023-04-13T08:37:17.650Z,17.40
2023-04-13T08:39:45.529Z,17.32
2023-04-13T08:42:13.354Z,17.13
2023-04-13T08:44:40.372Z,17.19
2023-04-13T08:47:07.515Z,17.80
2023-04-13T08:49:37.241Z,17.46
2023-04-13T08:52:07.053Z,17.57
2023-04-13T08:54:35.355Z,17.47
2023-04-13T08:57:06.841Z,17.92
2023-04-13T08:59:35.447Z,18.07
2023-04-13T09:02:05.194Z,18.03
2023-04-13T09:04:41.979Z,18.54
2023-04-13T09:07:16.454Z,18.34
2023-04-13T09:09:48.868Z,18.07
2023-04-13T09:12:15.813Z,19.09
2023-04-13T09:14:44.243Z,18.67
2023-04-13T09:17:22.343Z,19.10
2023-04-13T09:19:49.610Z,19.54
2023-04-13T09:22:16.868Z,19.08
2023-04-13T09:24:44.235Z,19.33
2023-04-13T09:27:24.248Z,19.20
2023-04-13T09:29:52.974Z,19.67
2023-04-13T09:32:24.237Z,20.25
2023-04-13T09:35:07.193Z,20.48
2023-04-13T09:37:45.601Z,20.92
2023-04-13T09:40:15.450Z,21.15
2023-04-13T09:42:59.733Z,20.92
2023-04-13T09:45:41.203Z,20.18
2023-04-13T09:48:21.820Z,19.98
2023-04-13T09:50:59.824Z,20.24
2023-04-13T09:53:28.877Z,20.97
2023-04-13T09:56:00.054Z,20.54
2023-04-13T09:58:27.786Z,20.39
2023-04-13T10:01:10.765Z,19.99
2023-04-13T10:03:38.700Z,21.14
2023-04-13T10:06:07.997Z,21.77
2023-04-13T10:08:39.127Z,21.84
2023-04-13T10:11:15.958Z,21.85
2023-04-13T10:13:59.311Z,22.04
2023-04-13T10:16:56.865Z,21.19
2023-04-13T10:19:28.493Z,20.19
2023-04-13T10:21:56.636Z,20.46
2023-04-13T10:24:27.957Z,20.27
2023-04-13T10:27:07.731Z,20.97
2023-04-13T10:29:35.608Z,21.43
2023-04-13T10:32:07.375Z,21.84
2023-04-13T10:34:46.578Z,21.77
2023-04-13T10:37:21.975Z,21.94
2023-04-13T10:39:50.240Z,22.02
2023-04-13T10:42:18.186Z,21.85
2023-04-13T10:44:48.180Z,22.23
2023-04-13T10:47:22.553Z,22.48
2023-04-13T10:49:53.558Z,22.57
2023-04-13T10:52:39.878Z,22.29
2023-04-13T10:55:13.869Z,22.16
2023-04-13T10:57:44.192Z,22.06
2023-04-13T11:00:27.316Z,22.51
2023-04-13T11:03:25.404Z,21.59
2023-04-13T11:05:59.941Z,21.50
2023-04-13T11:08:37.297Z,21.66
2023-04-13T11:11:05.053Z,21.58
2023-04-13T11:13:43.399Z,21.86
2023-04-13T11:16:11.949Z,21.83
2023-04-13T11:18:41.868Z,22.11
2023-04-13T11:22:01.491Z,21.73
2023-04-13T11:24:34.419Z,22.26
2023-04-13T11:27:17.162Z,21.94
2023-04-13T11:29:50.096Z,21.91
2023-04-13T11:32:21.877Z,22.19
2023-04-13T11:34:57.960Z,22.34
2023-04-13T11:37:35.027Z,22.48
2023-04-13T11:40:10.392Z,22.28
2023-04-13T11:43:22.097Z,22.17
2023-04-13T11:49:18.835Z,21.72
2023-04-13T11:51:49.451Z,21.64
2023-04-13T11:54:20.615Z,21.66
2023-04-13T11:56:54.172Z,21.76
2023-04-13T11:59:31.178Z,21.44
2023-04-13T12:02:21.864Z,22.19
2023-04-13T12:05:29.727Z,21.35
2023-04-13T12:08:07.402Z,21.48
2023-04-13T12:13:31.117Z,21.52
2023-04-13T12:17:01.273Z,21.95
2023-04-13T12:19:38.483Z,21.93
2023-04-13T12:24:51.180Z,22.23
2023-04-13T12:31:21.909Z,21.20
2023-04-13T12:36:28.691Z,21.69
2023-04-13T12:39:06.321Z,22.19
2023-04-13T13:19:47.389Z,21.70
2023-04-13T13:25:00.447Z,22.12
2023-04-13T13:28:05.273Z,22.41
2023-04-13T13:30:18.858Z,21.87
2023-04-13T13:35:21.492Z,22.66
2023-04-13T13:37:56.303Z,22.51
2023-04-13T13:40:51.359Z,22.63
2023-04-13T14:04:47.339Z,22.65
2023-04-13T14:07:14.639Z,22.74
2023-04-13T14:09:41.438Z,22.88
2023-04-13T14:12:08.909Z,22.89
2023-04-13T14:14:39.051Z,22.97
2023-04-13T14:17:26.876Z,22.75
2023-04-13T14:20:03.353Z,22.83
2023-04-13T14:22:31.227Z,22.72
2023-04-13T14:24:59.364Z,22.49
2023-04-13T14:27:26.337Z,22.35
2023-04-13T14:29:53.828Z,22.19
2023-04-13T14:32:21.283Z,22.37
2023-04-13T14:34:47.986Z,22.19
2023-04-13T14:37:16.367Z,22.43
2023-04-13T14:39:48.243Z,22.23
2023-04-13T14:42:16.847Z,22.28
2023-04-13T14:44:44.393Z,22.43
2023-04-13T14:47:12.347Z,22.52
2023-04-13T14:49:42.023Z,22.35
2023-04-13T14:52:09.523Z,22.26
2023-04-13T14:54:36.815Z,22.26
2023-04-13T14:57:04.942Z,22.24
2023-04-13T14:59:32.095Z,22.39
2023-04-13T15:02:00.289Z,22.27
2023-04-13T15:04:28.370Z,22.22
2023-04-13T15:06:55.514Z,22.16
2023-04-13T15:09:22.424Z,21.87
2023-04-13T15:11:50.727Z,22.04
2023-04-13T15:14:17.925Z,22.09
2023-04-13T15:16:44.683Z,21.93
2023-04-13T15:19:12.889Z,22.12
2023-04-13T15:21:40.000Z,21.84
2023-04-13T15:24:08.787Z,21.78
2023-04-13T15:26:40.926Z,21.41
2023-04-13T15:29:11.173Z,21.55
2023-04-13T15:31:39.487Z,21.51
2023-04-13T15:34:09.098Z,21.64
2023-04-13T15:36:38.611Z,21.41
2023-04-13T15:39:05.557Z,21.58
2023-04-13T15:41:37.545Z,21.61
2023-04-13T15:44:07.589Z,21.71
2023-04-13T15:46:36.351Z,21.56
2023-04-13T15:54:33.850Z,21.22
2023-04-13T15:59:56.496Z,21.06
2023-04-13T16:02:23.594Z,21.03
2023-04-13T16:05:54.069Z,21.07
2023-04-13T16:07:39.050Z,21.11
2023-04-13T16:10:07.348Z,21.06
2023-04-13T16:12:34.965Z,20.90
2023-04-13T16:15:07.487Z,20.90
2023-04-13T16:17:35.322Z,20.99
2023-04-13T16:20:22.508Z,20.79
2023-04-13T16:22:51.090Z,20.54
2023-04-13T16:25:19.536Z,20.54
2023-04-13T16:27:48.684Z,20.58
2023-04-13T16:30:18.756Z,20.56
2023-04-13T16:32:46.845Z,20.55
2023-04-13T16:38:12.690Z,20.14
2023-04-13T16:40:40.289Z,20.17
2023-04-13T16:43:13.197Z,20.08
2023-04-13T16:45:48.996Z,20.26
2023-04-13T16:48:22.276Z,20.05
2023-04-13T16:50:49.678Z,19.88
2023-04-13T16:53:17.591Z,19.74
2023-04-13T16:56:00.871Z,19.65
2023-04-13T16:58:28.178Z,19.72
2023-04-13T17:00:55.164Z,19.73
2023-04-13T17:03:22.646Z,19.69
2023-04-13T17:05:49.699Z,19.59
2023-04-13T17:08:22.564Z,19.54
2023-04-13T17:10:51.628Z,19.57
2023-04-13T17:13:18.600Z,19.31
2023-04-13T17:15:45.550Z,19.34
2023-04-13T17:18:12.766Z,19.18
2023-04-13T17:20:40.298Z,19.29
2023-04-13T17:23:07.577Z,19.24
2023-04-13T17:25:41.257Z,19.20
2023-04-13T17:28:08.652Z,18.94
2023-04-13T17:30:35.745Z,18.94
2023-04-13T17:33:02.862Z,18.86
2023-04-13T17:35:30.135Z,18.69
2023-04-13T17:37:56.961Z,18.71
2023-04-13T17:40:23.970Z,18.62
2023-04-13T17:42:50.911Z,18.76
2023-04-13T17:45:19.015Z,18.62
2023-04-13T17:47:46.836Z,18.83
2023-04-13T17:50:15.418Z,18.54
2023-04-13T17:52:42.305Z,18.60
2023-04-13T17:55:09.677Z,18.51
2023-04-13T17:57:36.758Z,18.48
2023-04-13T18:00:10.557Z,18.39
2023-04-13T18:02:39.538Z,18.07
2023-04-13T18:05:07.380Z,18.06
2023-04-13T18:07:34.284Z,17.91
2023-04-13T18:10:01.287Z,17.97
2023-04-13T18:12:27.993Z,18.18
2023-04-13T18:14:59.180Z,18.12
2023-04-13T18:17:26.599Z,17.92
2023-04-13T18:19:56.363Z,17.88
2023-04-13T18:22:23.198Z,17.85
2023-04-13T18:24:50.174Z,17.79
2023-04-13T18:27:16.925Z,17.44
2023-04-13T18:29:44.161Z,17.70
2023-04-13T18:32:10.928Z,17.79
2023-04-13T18:34:37.975Z,17.62
2023-04-13T18:37:04.751Z,17.66
2023-04-13T18:39:33.817Z,17.53
2023-04-13T18:42:01.835Z,17.79
2023-04-13T18:44:28.680Z,17.27
2023-04-13T18:46:55.959Z,17.35
2023-04-13T18:49:22.916Z,17.09
2023-04-13T18:51:49.729Z,17.25
2023-04-13T18:54:16.758Z,17.13
2023-04-13T18:56:43.554Z,16.99
2023-04-13T18:59:10.913Z,16.85
2023-04-13T19:01:37.883Z,16.93
2023-04-13T19:04:05.121Z,17.20
2023-04-13T19:06:32.426Z,17.47
2023-04-13T19:09:01.957Z,16.99
2023-04-13T19:11:28.867Z,17.41
2023-04-13T19:13:56.472Z,17.46
2023-04-13T19:16:24.535Z,17.27
2023-04-13T19:18:51.568Z,17.26
2023-04-13T19:21:23.851Z,17.26
2023-04-13T19:23:50.918Z,17.10
2023-04-13T19:26:17.825Z,17.29
2023-04-13T19:28:47.542Z,17.26
2023-04-13T19:31:14.259Z,17.14
2023-04-13T19:33:41.083Z,17.21
2023-04-13T19:36:08.455Z,17.12
2023-04-13T19:38:35.690Z,17.05
2023-04-13T19:41:02.593Z,17.04
2023-04-13T19:43:30.105Z,17.19
2023-04-13T19:45:57.163Z,16.90
2023-04-13T19:48:24.013Z,17.00
2023-04-13T19:50:51.123Z,16.89
2023-04-13T19:53:17.900Z,17.01
2023-04-13T19:55:47.467Z,17.07
2023-04-13T19:58:14.547Z,17.22
2023-04-13T20:00:42.417Z,17.17
2023-04-13T20:03:09.324Z,17.23
2023-04-13T20:05:40.276Z,17.14
2023-04-13T20:08:07.004Z,17.18
2023-04-13T20:10:39.239Z,17.04
2023-04-13T20:13:06.278Z,17.06
2023-04-13T20:15:35.498Z,17.13
2023-04-13T20:18:06.596Z,17.03
2023-04-13T20:20:35.915Z,17.13
2023-04-13T20:23:02.950Z,17.16
2023-04-13T20:25:29.879Z,16.92
2023-04-13T20:27:57.273Z,17.10
2023-04-13T20:30:31.852Z,16.80
2023-04-13T20:33:07.965Z,16.82
2023-04-13T20:35:34.815Z,16.84
2023-04-13T20:38:01.968Z,16.79
2023-04-13T20:40:29.307Z,16.81
2023-04-13T20:42:58.636Z,16.76
2023-04-13T20:45:26.136Z,16.79
2023-04-13T20:47:56.231Z,16.72
2023-04-13T20:50:25.643Z,16.84
2023-04-13T20:52:56.906Z,17.06
2023-04-13T20:55:24.591Z,16.91
2023-04-13T20:57:57.068Z,16.78
2023-04-13T21:00:30.506Z,16.74
2023-04-13T21:02:58.192Z,16.45
2023-04-13T21:05:25.091Z,16.62
2023-04-13T21:07:52.158Z,16.49
2023-04-13T21:10:18.989Z,16.56
2023-04-13T21:12:46.257Z,16.69
2023-04-13T21:15:13.128Z,16.66
2023-04-13T21:17:40.230Z,16.34
2023-04-13T21:20:09.346Z,16.30
2023-04-13T21:22:37.383Z,16.43
2023-04-13T21:25:07.362Z,16.52
2023-04-13T21:27:34.136Z,16.51
2023-04-13T21:30:01.624Z,16.48
2023-04-13T21:32:28.701Z,16.35
2023-04-13T21:34:57.600Z,16.49
2023-04-13T21:37:24.828Z,16.45
2023-04-13T21:39:51.757Z,16.25
2023-04-13T21:42:19.416Z,16.33
2023-04-13T21:44:47.620Z,16.45
2023-04-13T21:47:14.407Z,16.34
2023-04-13T21:49:43.236Z,16.48
2023-04-13T21:52:10.792Z,16.25
2023-04-13T21:54:37.648Z,16.18
2023-04-13T21:57:07.044Z,16.08
2023-04-13T21:59:34.306Z,15.98
2023-04-13T22:02:01.204Z,15.95
2023-04-13T22:04:28.203Z,16.18
2023-04-13T22:06:56.081Z,15.86
2023-04-13T22:09:23.000Z,16.06
2023-04-13T22:11:51.517Z,16.09
2023-04-13T22:14:19.330Z,16.11
2023-04-13T22:16:48.420Z,16.09
2023-04-13T22:19:15.565Z,15.99
2023-04-13T22:21:42.404Z,16.07
2023-04-13T22:24:10.719Z,15.97
2023-04-13T22:26:37.492Z,16.07
2023-04-13T22:29:04.733Z,15.85
2023-04-13T22:31:31.874Z,16.16
2023-04-13T22:33:58.581Z,16.21
2023-04-13T22:36:25.668Z,15.99
2023-04-13T22:38:53.055Z,16.06
2023-04-13T22:41:19.938Z,16.19
2023-04-13T22:43:47.149Z,16.02
2023-04-13T22:46:14.210Z,15.80
2023-04-13T22:48:40.937Z,15.85
2023-04-13T22:51:07.875Z,15.99
2023-04-13T22:53:35.017Z,15.98
2023-04-13T22:56:01.775Z,15.96
2023-04-13T22:58:28.782Z,15.88
2023-04-13T23:00:55.515Z,15.97
2023-04-13T23:03:22.797Z,15.87
2023-04-13T23:05:49.991Z,15.91
2023-04-13T23:08:17.166Z,16.05
2023-04-13T23:10:44.025Z,15.74
2023-04-13T23:13:11.330Z,15.86
2023-04-13T23:15:41.630Z,15.78
2023-04-13T23:18:08.514Z,15.81
2023-04-13T23:20:35.402Z,16.05
2023-04-13T23:23:02.288Z,15.94
2023-04-13T23:25:29.325Z,15.99
2023-04-13T23:27:58.701Z,15.85
2023-04-13T23:30:27.255Z,15.80
2023-04-13T23:32:54.276Z,15.86
2023-04-13T23:35:21.513Z,15.65
2023-04-13T23:37:48.281Z,15.63
2023-04-13T23:40:15.269Z,15.57
2023-04-13T23:42:42.252Z,15.60
2023-04-13T23:45:09.295Z,15.49
2023-04-13T23:47:36.273Z,15.62
2023-04-13T23:50:05.475Z,15.52
2023-04-13T23:52:32.573Z,15.55
2023-04-13T23:54:59.746Z,15.40
2023-04-13T23:57:26.851Z,15.46
